createdAt,value
2023-04-02T00:00:10.357Z,100855.17
2023-04-02T00:02:58.478Z,100852.10
2023-04-02T00:05:31.644Z,100851.84
2023-04-02T00:08:03.352Z,100850.56
2023-04-02T00:10:35.091Z,100854.38
2023-04-02T00:13:11.661Z,100851.83
2023-04-02T00:15:45.464Z,100845.27
2023-04-02T00:18:19.020Z,100842.41
2023-04-02T00:21:13.684Z,100845.27
2023-04-02T00:23:42.957Z,100844.10
2023-04-02T00:26:31.940Z,100840.23
2023-04-02T00:29:01.419Z,100848.66
2023-04-02T00:31:29.791Z,100848.19
2023-04-02T00:33:59.612Z,100853.42
2023-04-02T00:36:30.964Z,100846.48
2023-04-02T00:39:00.460Z,100849.45
2023-04-02T00:41:31.557Z,100850.09
2023-04-02T00:44:01.108Z,100845.64
2023-04-02T00:46:47.480Z,100841.52
2023-04-02T00:49:27.463Z,100832.51
2023-04-02T00:51:59.223Z,100829.08
2023-04-02T00:54:31.595Z,100822.24
2023-04-02T00:56:59.220Z,100823.98
2023-04-02T00:59:43.406Z,100824.84
2023-04-02T01:02:17.728Z,100825.41
2023-04-02T01:05:02.743Z,100828.97
2023-04-02T01:07:48.067Z,100829.61
2023-04-02T01:10:18.042Z,100836.80
2023-04-02T01:12:50.867Z,100839.03
2023-04-02T01:15:30.433Z,100830.54
2023-04-02T01:18:04.861Z,100823.02
2023-04-02T01:20:38.118Z,100821.60
2023-04-02T01:23:17.250Z,100811.38
2023-04-02T01:26:08.255Z,100807.27
2023-04-02T01:29:03.468Z,100804.04
2023-04-02T01:31:33.782Z,100796.61
2023-04-02T01:34:02.581Z,100792.16
2023-04-02T01:36:48.057Z,100792.48
2023-04-02T01:39:18.717Z,100786.86
2023-04-02T01:41:49.523Z,100785.34
2023-04-02T01:44:26.690Z,100788.77
2023-04-02T01:46:54.164Z,100792.00
2023-04-02T01:49:23.156Z,100794.17
2023-04-02T01:51:56.975Z,100793.80
2023-04-02T01:54:29.132Z,100792.42
2023-04-02T01:56:58.100Z,100793.42
2023-04-02T01:59:26.605Z,100795.77
2023-04-02T02:02:05.950Z,100798.80
2023-04-02T02:04:36.980Z,100792.13
2023-04-02T02:07:14.495Z,100784.55
2023-04-02T02:09:42.545Z,100778.83
2023-04-02T02:12:13.992Z,100766.54
2023-04-02T02:14:50.079Z,100765.53
2023-04-02T02:17:24.473Z,100766.80
2023-04-02T02:19:56.542Z,100779.66
2023-04-02T02:22:37.723Z,100783.01
2023-04-02T02:25:11.587Z,100790.42
2023-04-02T02:28:22.202Z,100792.42
2023-04-02T02:31:12.969Z,100793.08
2023-04-02T02:33:49.840Z,100794.54
2023-04-02T02:36:47.289Z,100793.17
2023-04-02T02:39:30.772Z,100799.26
2023-04-02T02:42:02.276Z,100797.36
2023-04-02T02:44:36.588Z,100791.80
2023-04-02T02:47:16.862Z,100781.16
2023-04-02T02:49:50.063Z,100771.25
2023-04-02T02:52:21.585Z,100769.71
2023-04-02T02:55:07.145Z,100774.42
2023-04-02T02:58:10.363Z,100771.78
2023-04-02T03:00:47.319Z,100768.33
2023-04-02T03:03:22.411Z,100770.98
2023-04-02T03:06:05.553Z,100770.02
2023-04-02T03:08:40.822Z,100774.73
2023-04-02T03:11:30.964Z,100776.27
2023-04-02T03:14:08.394Z,100774.94
2023-04-02T03:16:43.367Z,100787.50
2023-04-02T03:19:32.405Z,100794.11
2023-04-02T03:22:13.020Z,100786.60
2023-04-02T03:24:41.647Z,100784.05
2023-04-02T03:27:09.909Z,100798.77
2023-04-02T03:29:45.781Z,100809.75
2023-04-02T03:32:34.768Z,100801.85
2023-04-02T03:35:17.463Z,100786.91
2023-04-02T03:37:57.099Z,100787.83
2023-04-02T03:40:38.264Z,100777.75
2023-04-02T03:43:23.748Z,100775.11
2023-04-02T03:46:00.769Z,100770.35
2023-04-02T03:48:39.044Z,100767.48
2023-04-02T03:51:11.558Z,100760.11
2023-04-02T03:53:39.155Z,100741.84
2023-04-02T03:56:07.953Z,100729.23
2023-04-02T03:58:49.395Z,100704.56
2023-04-02T04:01:44.150Z,100683.16
2023-04-02T04:04:18.095Z,100680.77
2023-04-02T04:06:49.434Z,100675.42
2023-04-02T04:09:32.507Z,100670.49
2023-04-02T04:12:24.478Z,100673.52
2023-04-02T04:15:02.438Z,100685.21
2023-04-02T04:17:41.678Z,100698.24
2023-04-02T04:20:28.845Z,100699.04
2023-04-02T04:23:09.861Z,100702.70
2023-04-02T04:25:37.497Z,100696.88
2023-04-02T04:28:24.410Z,100685.34
2023-04-02T04:31:00.881Z,100679.30
2023-04-02T04:33:40.081Z,100675.54
2023-04-02T04:36:28.862Z,100676.02
2023-04-02T04:39:18.067Z,100676.98
2023-04-02T04:41:50.231Z,100681.91
2023-04-02T04:44:38.382Z,100687.48
2023-04-02T04:47:17.943Z,100675.30
2023-04-02T04:49:53.563Z,100670.38
2023-04-02T04:52:33.153Z,100662.70
2023-04-02T04:55:01.089Z,100666.72
2023-04-02T04:57:40.135Z,100671.59
2023-04-02T05:00:16.370Z,100679.48
2023-04-02T05:02:59.550Z,100679.06
2023-04-02T05:05:40.519Z,100679.16
2023-04-02T05:08:22.219Z,100685.30
2023-04-02T05:11:19.918Z,100685.98
2023-04-02T05:13:56.869Z,100670.27
2023-04-02T05:16:39.116Z,100657.61
2023-04-02T05:19:17.118Z,100645.95
2023-04-02T05:21:55.910Z,100634.79
2023-04-02T05:24:44.928Z,100648.70
2023-04-02T05:27:26.902Z,100667.18
2023-04-02T05:30:01.611Z,100659.39
2023-04-02T05:32:34.815Z,100656.11
2023-04-02T05:35:06.711Z,100656.20
2023-04-02T05:37:39.885Z,100652.92
2023-04-02T05:40:26.613Z,100642.98
2023-04-02T05:42:55.869Z,100636.56
2023-04-02T05:45:32.582Z,100639.27
2023-04-02T05:48:04.755Z,100640.02
2023-04-02T05:50:40.591Z,100639.80
2023-04-02T05:53:14.680Z,100635.84
2023-04-02T05:55:58.278Z,100630.44
2023-04-02T05:58:36.320Z,100635.63
2023-04-02T06:01:21.123Z,100639.96
2023-04-02T06:04:03.851Z,100641.95
2023-04-02T06:06:39.477Z,100641.31
2023-04-02T06:09:13.550Z,100638.30
2023-04-02T06:11:46.448Z,100635.38
2023-04-02T06:14:17.740Z,100639.17
2023-04-02T06:16:46.582Z,100640.24
2023-04-02T06:19:22.446Z,100639.50
2023-04-02T06:21:52.703Z,100631.09
2023-04-02T06:24:26.297Z,100626.73
2023-04-02T06:27:02.738Z,100622.02
2023-04-02T06:29:40.344Z,100617.99
2023-04-02T06:32:13.020Z,100617.94
2023-04-02T06:34:43.469Z,100614.18
2023-04-02T06:37:28.864Z,100621.17
2023-04-02T06:40:38.142Z,100620.96
2023-04-02T06:43:19.011Z,100622.14
2023-04-02T06:46:19.188Z,100627.13
2023-04-02T06:49:19.644Z,100632.54
2023-04-02T06:51:50.997Z,100633.70
2023-04-02T06:54:19.194Z,100622.00
2023-04-02T06:56:52.303Z,100624.08
2023-04-02T06:59:26.116Z,100618.88
2023-04-02T07:02:03.909Z,100615.79
2023-04-02T07:04:31.776Z,100622.46
2023-04-02T07:06:58.927Z,100626.34
2023-04-02T07:09:29.511Z,100625.44
2023-04-02T07:11:59.547Z,100622.46
2023-04-02T07:14:26.709Z,100622.79
2023-04-02T07:16:53.726Z,100625.21
2023-04-02T07:19:23.191Z,100625.80
2023-04-02T07:21:54.497Z,100633.05
2023-04-02T07:24:22.145Z,100630.88
2023-04-02T07:26:49.479Z,100635.89
2023-04-02T07:29:17.619Z,100638.97
2023-04-02T07:31:44.631Z,100641.93
2023-04-02T07:34:11.696Z,100638.95
2023-04-02T07:36:38.729Z,100639.38
2023-04-02T07:39:06.437Z,100640.80
2023-04-02T07:41:33.517Z,100647.21
2023-04-02T07:44:00.473Z,100652.77
2023-04-02T07:46:27.501Z,100655.05
2023-04-02T07:48:54.420Z,100654.21
2023-04-02T07:51:24.399Z,100657.80
2023-04-02T07:53:56.042Z,100662.42
2023-04-02T07:56:25.219Z,100662.52
2023-04-02T07:58:52.434Z,100662.14
2023-04-02T08:01:26.120Z,100666.38
2023-04-02T08:03:57.715Z,100672.73
2023-04-02T08:06:26.099Z,100668.86
2023-04-02T08:08:53.536Z,100666.26
2023-04-02T08:11:20.550Z,100660.69
2023-04-02T08:13:48.069Z,100651.85
2023-04-02T08:16:15.262Z,100648.45
2023-04-02T08:18:42.342Z,100645.59
2023-04-02T08:21:11.520Z,100651.14
2023-04-02T08:23:38.533Z,100659.41
2023-04-02T08:26:06.805Z,100668.20
2023-04-02T08:28:35.786Z,100672.23
2023-04-02T08:31:04.924Z,100681.94
2023-04-02T08:33:32.181Z,100685.36
2023-04-02T08:35:59.334Z,100678.94
2023-04-02T08:38:26.861Z,100688.48
2023-04-02T08:40:58.848Z,100691.34
2023-04-02T08:43:41.037Z,100692.55
2023-04-02T08:46:11.976Z,100692.34
2023-04-02T08:48:44.144Z,100696.08
2023-04-02T08:51:25.622Z,100700.71
2023-04-02T08:53:57.057Z,100704.52
2023-04-02T08:56:33.795Z,100694.03
2023-04-02T08:59:08.891Z,100698.02
2023-04-02T09:01:44.877Z,100695.83
2023-04-02T09:04:18.995Z,100690.05
2023-04-02T09:06:47.350Z,100690.01
2023-04-02T09:09:16.203Z,100689.40
2023-04-02T09:12:04.295Z,100693.64
2023-04-02T09:14:57.904Z,100690.89
2023-04-02T09:17:26.757Z,100687.66
2023-04-02T09:20:18.259Z,100687.02
2023-04-02T09:22:48.738Z,100675.17
2023-04-02T09:25:21.500Z,100676.08
2023-04-02T09:27:50.886Z,100682.97
2023-04-02T09:30:38.569Z,100687.15
2023-04-02T09:33:10.161Z,100682.18
2023-04-02T09:35:49.596Z,100670.62
2023-04-02T09:38:19.374Z,100658.38
2023-04-02T09:41:01.663Z,100653.14
2023-04-02T09:43:37.018Z,100651.52
2023-04-02T09:46:22.308Z,100642.36
2023-04-02T09:48:58.574Z,100645.60
2023-04-02T09:51:33.407Z,100645.96
2023-04-02T09:54:07.358Z,100653.34
2023-04-02T09:56:36.873Z,100652.48
2023-04-02T09:59:13.021Z,100643.48
2023-04-02T10:01:41.819Z,100644.70
2023-04-02T10:04:47.785Z,100642.60
2023-04-02T10:07:37.184Z,100651.73
2023-04-02T10:10:39.660Z,100649.70
2023-04-02T10:13:29.046Z,100643.15
2023-04-02T10:16:07.574Z,100634.36
2023-04-02T10:18:41.758Z,100636.20
2023-04-02T10:21:12.415Z,100631.85
2023-04-02T10:23:39.554Z,100624.13
2023-04-02T10:26:32.192Z,100619.40
2023-04-02T10:29:27.816Z,100613.78
2023-04-02T10:32:03.860Z,100610.35
2023-04-02T10:34:41.176Z,100604.19
2023-04-02T10:37:17.930Z,100594.33
2023-04-02T10:39:54.073Z,100592.56
2023-04-02T10:42:36.572Z,100602.42
2023-04-02T10:45:37.741Z,100607.82
2023-04-02T10:48:11.497Z,100608.98
2023-04-02T10:51:07.081Z,100614.40
2023-04-02T10:53:58.807Z,100610.67
2023-04-02T10:56:28.584Z,100602.67
2023-04-02T10:59:16.542Z,100596.05
2023-04-02T11:01:46.232Z,100587.73
2023-04-02T11:04:29.599Z,100581.05
2023-04-02T11:07:13.240Z,100580.15
2023-04-02T11:09:45.881Z,100574.01
2023-04-02T11:12:41.765Z,100563.02
2023-04-02T11:15:20.139Z,100549.37
2023-04-02T11:17:48.189Z,100541.61
2023-04-02T11:20:49.059Z,100539.02
2023-04-02T11:23:21.091Z,100548.10
2023-04-02T11:25:49.281Z,100552.19
2023-04-02T11:28:31.686Z,100554.62
2023-04-02T11:30:59.290Z,100551.96
2023-04-02T11:33:44.233Z,100544.70
2023-04-02T11:36:52.617Z,100543.90
2023-04-02T11:39:57.472Z,100536.70
2023-04-02T11:42:27.800Z,100529.60
2023-04-02T11:44:56.450Z,100527.53
2023-04-02T11:47:28.227Z,100529.64
2023-04-02T11:50:01.621Z,100533.83
2023-04-02T11:52:50.403Z,100531.35
2023-04-02T11:55:30.981Z,100522.02
2023-04-02T11:58:07.392Z,100520.04
2023-04-02T12:01:12.131Z,100519.21
2023-04-02T12:04:14.080Z,100517.31
2023-04-02T12:06:47.229Z,100511.02
2023-04-02T12:09:30.467Z,100504.64
2023-04-02T12:12:00.880Z,100498.55
2023-04-02T12:14:36.749Z,100493.96
2023-04-02T12:17:28.459Z,100500.67
2023-04-02T12:20:05.092Z,100504.36
2023-04-02T12:22:35.309Z,100499.96
2023-04-02T12:25:25.006Z,100500.94
2023-04-02T12:28:12.881Z,100502.52
2023-04-02T12:30:43.200Z,100495.07
2023-04-02T12:33:23.611Z,100491.80
2023-04-02T12:35:58.117Z,100483.70
2023-04-02T12:38:32.774Z,100480.34
2023-04-02T12:41:05.388Z,100474.31
2023-04-02T12:43:36.344Z,100473.36
2023-04-02T12:46:09.669Z,100479.12
2023-04-02T12:48:40.372Z,100482.13
2023-04-02T12:51:08.541Z,100475.29
2023-04-02T12:53:40.400Z,100470.09
2023-04-02T12:56:09.714Z,100468.23
2023-04-02T12:58:41.672Z,100456.33
2023-04-02T13:01:24.108Z,100442.50
2023-04-02T13:04:04.306Z,100433.88
2023-04-02T13:06:36.104Z,100427.35
2023-04-02T13:09:07.680Z,100424.81
2023-04-02T13:11:40.904Z,100425.25
2023-04-02T13:14:21.230Z,100427.40
2023-04-02T13:16:50.911Z,100427.82
2023-04-02T13:19:24.741Z,100419.99
2023-04-02T13:21:54.488Z,100414.52
2023-04-02T13:24:26.590Z,100414.38
2023-04-02T13:27:03.127Z,100414.75
2023-04-02T13:29:36.534Z,100416.39
2023-04-02T13:32:08.936Z,100413.11
2023-04-02T13:34:37.629Z,100410.70
2023-04-02T13:37:06.191Z,100411.29
2023-04-02T13:39:34.786Z,100403.88
2023-04-02T13:42:07.433Z,100400.49
2023-04-02T13:44:40.412Z,100399.95
2023-04-02T13:47:15.594Z,100394.42
2023-04-02T13:49:44.481Z,100387.96
2023-04-02T13:52:17.834Z,100381.14
2023-04-02T13:54:55.859Z,100380.23
2023-04-02T13:57:24.134Z,100374.84
2023-04-02T13:59:53.073Z,100372.71
2023-04-02T14:02:29.739Z,100371.77
2023-04-02T14:05:24.990Z,100367.80
2023-04-02T14:08:12.181Z,100361.77
2023-04-02T14:10:59.310Z,100360.56
2023-04-02T14:13:43.182Z,100350.86
2023-04-02T14:16:47.734Z,100349.46
2023-04-02T14:19:47.892Z,100341.00
2023-04-02T14:23:02.249Z,100337.29
2023-04-02T14:25:37.441Z,100342.48
2023-04-02T14:28:24.750Z,100343.70
2023-04-02T14:31:13.731Z,100343.77
2023-04-02T14:34:14.147Z,100344.05
2023-04-02T14:36:59.283Z,100340.94
2023-04-02T14:39:46.369Z,100342.70
2023-04-02T14:42:23.452Z,100362.67
2023-04-02T14:45:06.248Z,100387.45
2023-04-02T14:47:44.635Z,100414.35
2023-04-02T14:50:41.232Z,100424.64
2023-04-02T14:53:18.764Z,100423.04
2023-04-02T14:55:50.963Z,100419.66
2023-04-02T14:58:47.619Z,100427.08
2023-04-02T15:01:23.295Z,100441.79
2023-04-02T15:03:54.945Z,100446.08
2023-04-02T15:06:32.493Z,100448.94
2023-04-02T15:09:28.824Z,100448.63
2023-04-02T15:12:18.037Z,100451.33
2023-04-02T15:14:50.072Z,100465.98
2023-04-02T15:17:19.115Z,100480.23
2023-04-02T15:19:48.263Z,100487.80
2023-04-02T15:22:33.867Z,100489.86
2023-04-02T15:26:00.828Z,100489.23
2023-04-02T15:28:55.328Z,100477.86
2023-04-02T15:31:28.897Z,100474.06
2023-04-02T15:34:24.462Z,100473.43
2023-04-02T15:37:18.249Z,100474.89
2023-04-02T15:40:24.744Z,100474.30
2023-04-02T15:43:14.856Z,100469.92
2023-04-02T15:46:10.782Z,100469.34
2023-04-02T15:49:00.992Z,100474.89
2023-04-02T15:51:57.223Z,100469.55
2023-04-02T15:54:32.331Z,100475.44
2023-04-02T15:57:40.252Z,100470.83
2023-04-02T16:00:31.860Z,100466.11
2023-04-02T16:03:09.077Z,100464.88
2023-04-02T16:05:43.966Z,100471.13
2023-04-02T16:08:43.141Z,100471.81
2023-04-02T16:11:21.932Z,100469.11
2023-04-02T16:13:50.730Z,100461.54
2023-04-02T16:16:32.304Z,100466.73
2023-04-02T16:19:35.054Z,100474.04
2023-04-02T16:22:31.055Z,100468.31
2023-04-02T16:25:09.022Z,100479.39
2023-04-02T16:27:44.354Z,100496.70
2023-04-02T16:31:10.184Z,100500.50
2023-04-02T16:34:12.126Z,100497.75
2023-04-02T16:37:05.430Z,100499.86
2023-04-02T16:39:45.359Z,100501.67
2023-04-02T16:42:19.529Z,100495.85
2023-04-02T16:45:18.764Z,100493.31
2023-04-02T16:48:15.962Z,100492.19
2023-04-02T16:51:08.213Z,100486.23
2023-04-02T16:54:11.539Z,100479.55
2023-04-02T16:56:50.884Z,100480.40
2023-04-02T16:59:53.955Z,100479.59
2023-04-02T17:02:42.663Z,100477.69
2023-04-02T17:05:18.072Z,100479.27
2023-04-02T17:08:22.190Z,100478.33
2023-04-02T17:11:34.107Z,100472.63
2023-04-02T17:14:13.055Z,100470.92
2023-04-02T17:16:48.072Z,100468.33
2023-04-02T17:19:19.783Z,100458.75
2023-04-02T17:21:52.709Z,100453.48
2023-04-02T17:24:27.303Z,100453.90
2023-04-02T17:27:07.145Z,100450.89
2023-04-02T17:29:46.582Z,100448.73
2023-04-02T17:32:28.632Z,100444.33
2023-04-02T17:35:03.428Z,100442.53
2023-04-02T17:37:57.037Z,100442.16
2023-04-02T17:40:35.697Z,100451.10
2023-04-02T17:43:05.865Z,100457.03
2023-04-02T17:45:39.316Z,100453.59
2023-04-02T17:48:20.622Z,100455.91
2023-04-02T17:51:15.212Z,100466.08
2023-04-02T17:54:02.014Z,100469.52
2023-04-02T17:57:10.609Z,100477.34
2023-04-02T18:00:00.228Z,100485.61
2023-04-02T18:02:36.422Z,100485.83
2023-04-02T18:05:13.400Z,100484.60
2023-04-02T18:08:15.056Z,100479.03
2023-04-02T18:11:06.510Z,100480.34
2023-04-02T18:13:42.622Z,100475.58
2023-04-02T18:16:37.454Z,100477.06
2023-04-02T18:19:28.239Z,100475.64
2023-04-02T18:22:12.860Z,100475.79
2023-04-02T18:25:04.897Z,100473.88
2023-04-02T18:27:34.942Z,100472.83
2023-04-02T18:30:56.325Z,100468.92
2023-04-02T18:33:34.609Z,100466.19
2023-04-02T18:36:05.690Z,100465.19
2023-04-02T18:38:57.378Z,100461.47
2023-04-02T18:41:46.264Z,100458.13
2023-04-02T18:44:23.237Z,100456.04
2023-04-02T18:47:11.921Z,100460.86
2023-04-02T18:49:41.844Z,100459.38
2023-04-02T18:52:14.807Z,100454.19
2023-04-02T18:54:50.699Z,100446.88
2023-04-02T18:57:34.177Z,100439.23
2023-04-02T19:00:06.473Z,100437.02
2023-04-02T19:02:41.843Z,100440.25
2023-04-02T19:05:23.917Z,100447.26
2023-04-02T19:07:58.290Z,100445.45
2023-04-02T19:10:39.789Z,100452.34
2023-04-02T19:13:19.023Z,100462.73
2023-04-02T19:16:09.889Z,100468.13
2023-04-02T19:19:02.908Z,100466.61
2023-04-02T19:22:09.099Z,100470.42
2023-04-02T19:25:03.577Z,100465.92
2023-04-02T19:28:09.030Z,100469.73
2023-04-02T19:30:38.762Z,100461.23
2023-04-02T19:33:21.104Z,100456.56
2023-04-02T19:35:54.143Z,100448.94
2023-04-02T19:38:52.520Z,100440.23
2023-04-02T19:41:40.047Z,100430.86
2023-04-02T19:44:13.477Z,100423.92
2023-04-02T19:46:40.987Z,100434.09
2023-04-02T19:49:40.452Z,100442.91
2023-04-02T19:52:07.358Z,100440.30
2023-04-02T19:54:35.778Z,100446.87
2023-04-02T19:57:05.255Z,100446.65
2023-04-02T19:59:32.560Z,100447.23
2023-04-02T20:01:59.971Z,100447.17
2023-04-02T20:04:29.784Z,100445.85
2023-04-02T20:06:56.659Z,100439.92
2023-04-02T20:09:23.724Z,100431.80
2023-04-02T20:11:50.831Z,100425.02
2023-04-02T20:14:17.955Z,100417.59
2023-04-02T20:16:45.885Z,100411.77
2023-04-02T20:19:15.719Z,100408.91
2023-04-02T20:21:47.737Z,100403.15
2023-04-02T20:24:15.126Z,100403.58
2023-04-02T20:26:45.372Z,100403.60
2023-04-02T20:29:12.530Z,100399.15
2023-04-02T20:31:39.869Z,100397.95
2023-04-02T20:34:08.661Z,100399.39
2023-04-02T20:36:35.739Z,100403.69
2023-04-02T20:39:03.693Z,100404.16
2023-04-02T20:41:31.789Z,100399.30
2023-04-02T20:44:01.733Z,100400.36
2023-04-02T20:46:29.686Z,100400.41
2023-04-02T20:49:00.628Z,100399.55
2023-04-02T20:51:27.657Z,100391.41
2023-04-02T20:53:55.733Z,100389.13
2023-04-02T20:56:26.937Z,100382.63
2023-04-02T20:58:53.883Z,100378.88
2023-04-02T21:01:26.538Z,100371.41
2023-04-02T21:04:01.917Z,100367.61
2023-04-02T21:06:31.935Z,100363.86
2023-04-02T21:08:59.345Z,100359.73
2023-04-02T21:11:27.024Z,100353.44
2023-04-02T21:13:54.604Z,100353.95
2023-04-02T21:16:31.398Z,100349.87
2023-04-02T21:19:01.615Z,100346.91
2023-04-02T21:21:28.957Z,100342.03
2023-04-02T21:24:02.544Z,100336.98
2023-04-02T21:26:33.411Z,100333.83
2023-04-02T21:29:02.639Z,100332.70
2023-04-02T21:31:34.839Z,100331.15
2023-04-02T21:34:02.217Z,100326.13
2023-04-02T21:36:35.394Z,100318.83
2023-04-02T21:39:09.017Z,100320.70
2023-04-02T21:41:39.219Z,100326.52
2023-04-02T21:44:12.825Z,100327.94
2023-04-02T21:46:42.656Z,100323.30
2023-04-02T21:49:14.103Z,100322.50
2023-04-02T21:51:43.696Z,100325.52
2023-04-02T21:54:13.919Z,100319.02
2023-04-02T21:56:43.218Z,100323.10
2023-04-02T21:59:12.570Z,100319.30
2023-04-02T22:01:44.616Z,100320.98
2023-04-02T22:04:18.009Z,100317.38
2023-04-02T22:06:45.686Z,100315.05
2023-04-02T22:09:18.728Z,100309.95
2023-04-02T22:11:51.470Z,100306.97
2023-04-02T22:14:18.504Z,100307.92
2023-04-02T22:16:45.667Z,100303.86
2023-04-02T22:19:18.015Z,100303.42
2023-04-02T22:21:46.346Z,100296.33
2023-04-02T22:24:16.262Z,100293.84
2023-04-02T22:26:45.099Z,100286.27
2023-04-02T22:29:12.552Z,100279.84
2023-04-02T22:31:39.731Z,100275.77
2023-04-02T22:34:06.818Z,100267.36
2023-04-02T22:36:34.883Z,100262.80
2023-04-02T22:39:05.503Z,100262.28
2023-04-02T22:41:32.995Z,100255.15
2023-04-02T22:44:01.471Z,100250.92
2023-04-02T22:46:29.822Z,100247.10
2023-04-02T22:48:57.504Z,100249.48
2023-04-02T22:51:25.807Z,100246.50
2023-04-02T22:53:54.752Z,100240.62
2023-04-02T22:56:25.006Z,100240.23
2023-04-02T22:58:52.024Z,100235.79
2023-04-02T23:01:27.444Z,100233.52
2023-04-02T23:03:55.663Z,100226.73
2023-04-02T23:06:23.797Z,100222.22
2023-04-02T23:08:51.518Z,100219.41
2023-04-02T23:11:22.211Z,100208.13
2023-04-02T23:13:53.007Z,100211.36
2023-04-02T23:16:21.539Z,100206.00
2023-04-02T23:18:49.196Z,100197.84
2023-04-02T23:21:18.147Z,100193.08
2023-04-02T23:23:46.319Z,100185.50
2023-04-02T23:26:35.316Z,100177.40
2023-04-02T23:29:02.594Z,100171.20
2023-04-02T23:31:29.923Z,100165.95
2023-04-02T23:33:57.296Z,100165.64
2023-04-02T23:36:32.493Z,100159.91
2023-04-02T23:39:05.112Z,100153.83
2023-04-02T23:41:32.267Z,100151.23
2023-04-02T23:43:59.352Z,100148.21
2023-04-02T23:46:26.479Z,100148.70
2023-04-02T23:48:54.604Z,100144.20
2023-04-02T23:51:22.548Z,100144.52
2023-04-02T23:53:51.139Z,100139.38
2023-04-02T23:56:19.174Z,100134.55
2023-04-02T23:58:46.396Z,100124.39
